sensor_id;sensor_type;location;lat;lon;timestamp;temperature;humidity
53146;DHT22;39042;53.150;5.898;2023-01-01T00:00:45;12.20;99.90
53146;DHT22;39042;53.150;5.898;2023-01-01T00:03:11;12.20;99.90
53146;DHT22;39042;53.150;5.898;2023-01-01T00:05:37;12.20;99.90
53146;DHT22;39042;53.150;5.898;2023-01-01T00:08:03;12.10;99.90
53146;DHT22;39042;53.150;5.898;2023-01-01T00:10:29;12.10;99.90
53146;DHT22;39042;53.150;5.898;2023-01-01T00:12:55;12.10;99.90
53146;DHT22;39042;53.150;5.898;2023-01-01T00:15:21;12.10;99.90
53146;DHT22;39042;53.150;5.898;2023-01-01T00:17:46;12.20;99.90
53146;DHT22;39042;53.150;5.898;2023-01-01T00:20:12;12.10;99.90
53146;DHT22;39042;53.150;5.898;2023-01-01T00:22:38;12.10;99.90
53146;DHT22;39042;53.150;5.898;2023-01-01T00:25:04;12.20;99.90
53146;DHT22;39042;53.150;5.898;2023-01-01T03:48:33;12.00;99.90
53146;DHT22;39042;53.150;5.898;2023-01-01T03:51:45;12.00;99.90
53146;DHT22;39042;53.150;5.898;2023-01-01T03:54:07;11.90;99.90
53146;DHT22;39042;53.150;5.898;2023-01-01T03:56:38;11.90;99.90
53146;DHT22;39042;53.150;5.898;2023-01-01T03:59:08;11.80;99.90
53146;DHT22;39042;53.150;5.898;2023-01-01T04:01:36;11.80;99.90
53146;DHT22;39042;53.150;5.898;2023-01-01T04:04:04;11.80;99.90
53146;DHT22;39042;53.150;5.898;2023-01-01T04:06:31;11.80;99.90
53146;DHT22;39042;53.150;5.898;2023-01-01T04:08:57;11.70;99.90
53146;DHT22;39042;53.150;5.898;2023-01-01T04:11:24;11.70;99.90
53146;DHT22;39042;53.150;5.898;2023-01-01T04:14:09;11.70;99.90
53146;DHT22;39042;53.150;5.898;2023-01-01T04:16:35;11.70;99.90
53146;DHT22;39042;53.150;5.898;2023-01-01T04:19:00;11.70;99.90
53146;DHT22;39042;53.150;5.898;2023-01-01T04:21:26;11.60;99.90
53146;DHT22;39042;53.150;5.898;2023-01-01T04:23:52;11.60;99.90
53146;DHT22;39042;53.150;5.898;2023-01-01T04:26:17;11.60;99.90
53146;DHT22;39042;53.150;5.898;2023-01-01T04:28:44;11.60;99.90
53146;DHT22;39042;53.150;5.898;2023-01-01T04:31:09;11.60;99.90
53146;DHT22;39042;53.150;5.898;2023-01-01T04:33:36;11.60;99.90
53146;DHT22;39042;53.150;5.898;2023-01-01T04:36:05;11.60;99.90
53146;DHT22;39042;53.150;5.898;2023-01-01T04:38:32;11.60;99.90
53146;DHT22;39042;53.150;5.898;2023-01-01T04:40:58;11.60;99.90
53146;DHT22;39042;53.150;5.898;2023-01-01T04:43:24;11.60;99.90
53146;DHT22;39042;53.150;5.898;2023-01-01T04:45:56;11.60;99.90
53146;DHT22;39042;53.150;5.898;2023-01-01T04:48:22;11.60;99.90
53146;DHT22;39042;53.150;5.898;2023-01-01T04:50:55;11.60;99.90
53146;DHT22;39042;53.150;5.898;2023-01-01T04:53:20;11.60;99.90
53146;DHT22;39042;53.150;5.898;2023-01-01T04:55:46;11.60;99.90
53146;DHT22;39042;53.150;5.898;2023-01-01T04:58:12;11.60;99.90
53146;DHT22;39042;53.150;5.898;2023-01-01T05:00:38;11.60;99.90
53146;DHT22;39042;53.150;5.898;2023-01-01T05:03:03;11.60;99.90
53146;DHT22;39042;53.150;5.898;2023-01-01T05:05:29;11.50;99.90
53146;DHT22;39042;53.150;5.898;2023-01-01T05:07:55;11.50;99.90
53146;DHT22;39042;53.150;5.898;2023-01-01T05:10:21;11.50;99.90
53146;DHT22;39042;53.150;5.898;2023-01-01T05:12:46;11.50;99.90
53146;DHT22;39042;53.150;5.898;2023-01-01T05:15:12;11.50;99.90
53146;DHT22;39042;53.150;5.898;2023-01-01T05:17:38;11.50;99.90
53146;DHT22;39042;53.150;5.898;2023-01-01T05:20:03;11.50;99.90
53146;DHT22;39042;53.150;5.898;2023-01-01T05:22:29;11.50;99.90
53146;DHT22;39042;53.150;5.898;2023-01-01T05:24:55;11.50;99.90
53146;DHT22;39042;53.150;5.898;2023-01-01T05:27:20;11.50;99.90
53146;DHT22;39042;53.150;5.898;2023-01-01T05:29:46;11.50;99.90
53146;DHT22;39042;53.150;5.898;2023-01-01T05:32:12;11.50;99.90
53146;DHT22;39042;53.150;5.898;2023-01-01T05:34:37;11.40;99.90
53146;DHT22;39042;53.150;5.898;2023-01-01T05:37:03;11.40;99.90
53146;DHT22;39042;53.150;5.898;2023-01-01T05:39:29;11.50;99.90
53146;DHT22;39042;53.150;5.898;2023-01-01T05:41:56;11.40;99.90
53146;DHT22;39042;53.150;5.898;2023-01-01T05:44:21;11.40;99.90
53146;DHT22;39042;53.150;5.898;2023-01-01T05:46:47;11.40;99.90
53146;DHT22;39042;53.150;5.898;2023-01-01T05:49:13;11.30;99.90
53146;DHT22;39042;53.150;5.898;2023-01-01T05:51:39;11.30;99.90
53146;DHT22;39042;53.150;5.898;2023-01-01T05:54:04;11.30;99.90
53146;DHT22;39042;53.150;5.898;2023-01-01T05:56:30;11.20;99.90
53146;DHT22;39042;53.150;5.898;2023-01-01T05:58:56;11.20;99.90
53146;DHT22;39042;53.150;5.898;2023-01-01T06:01:22;11.10;99.90
53146;DHT22;39042;53.150;5.898;2023-01-01T06:03:48;11.10;99.90
53146;DHT22;39042;53.150;5.898;2023-01-01T06:06:15;11.00;99.90
53146;DHT22;39042;53.150;5.898;2023-01-01T06:08:41;11.00;99.90
53146;DHT22;39042;53.150;5.898;2023-01-01T06:11:09;10.90;99.90
53146;DHT22;39042;53.150;5.898;2023-01-01T06:13:35;10.90;99.90
53146;DHT22;39042;53.150;5.898;2023-01-01T06:16:01;10.90;99.90
53146;DHT22;39042;53.150;5.898;2023-01-01T06:18:31;10.90;99.90
53146;DHT22;39042;53.150;5.898;2023-01-01T06:21:08;10.90;99.90
53146;DHT22;39042;53.150;5.898;2023-01-01T06:23:34;10.80;99.90
53146;DHT22;39042;53.150;5.898;2023-01-01T06:26:19;10.90;99.90
53146;DHT22;39042;53.150;5.898;2023-01-01T06:28:45;10.90;99.90
53146;DHT22;39042;53.150;5.898;2023-01-01T06:31:12;10.80;99.90
53146;DHT22;39042;53.150;5.898;2023-01-01T06:33:38;10.90;99.90
53146;DHT22;39042;53.150;5.898;2023-01-01T06:36:05;10.90;99.90
53146;DHT22;39042;53.150;5.898;2023-01-01T06:38:32;10.80;99.90
53146;DHT22;39042;53.150;5.898;2023-01-01T06:40:59;10.80;99.90
53146;DHT22;39042;53.150;5.898;2023-01-01T06:43:25;10.80;99.90
53146;DHT22;39042;53.150;5.898;2023-01-01T06:48:35;10.80;99.90
53146;DHT22;39042;53.150;5.898;2023-01-01T06:51:06;10.80;99.90
53146;DHT22;39042;53.150;5.898;2023-01-01T06:53:32;10.80;99.90
53146;DHT22;39042;53.150;5.898;2023-01-01T06:55:58;10.80;99.90
53146;DHT22;39042;53.150;5.898;2023-01-01T06:58:23;10.80;99.90
53146;DHT22;39042;53.150;5.898;2023-01-01T07:00:49;10.80;99.90
53146;DHT22;39042;53.150;5.898;2023-01-01T07:03:15;10.80;99.90
53146;DHT22;39042;53.150;5.898;2023-01-01T07:05:40;10.80;99.90
53146;DHT22;39042;53.150;5.898;2023-01-01T07:08:06;10.80;99.90
53146;DHT22;39042;53.150;5.898;2023-01-01T07:10:32;10.80;99.90
53146;DHT22;39042;53.150;5.898;2023-01-01T07:12:57;10.80;99.90
53146;DHT22;39042;53.150;5.898;2023-01-01T15:48:49;9.90;99.90
53146;DHT22;39042;53.150;5.898;2023-01-01T16:04:18;9.70;99.90
53146;DHT22;39042;53.150;5.898;2023-01-01T16:06:45;9.60;99.90
53146;DHT22;39042;53.150;5.898;2023-01-01T16:09:12;9.60;99.90
53146;DHT22;39042;53.150;5.898;2023-01-01T16:11:38;9.60;99.90
53146;DHT22;39042;53.150;5.898;2023-01-01T16:14:04;9.50;99.90
53146;DHT22;39042;53.150;5.898;2023-01-01T16:16:30;9.50;99.90
53146;DHT22;39042;53.150;5.898;2023-01-01T16:18:56;9.50;99.90
53146;DHT22;39042;53.150;5.898;2023-01-01T16:21:29;9.50;99.90
53146;DHT22;39042;53.150;5.898;2023-01-01T16:23:56;9.50;99.90
53146;DHT22;39042;53.150;5.898;2023-01-01T16:26:21;9.40;99.90
53146;DHT22;39042;53.150;5.898;2023-01-01T16:28:47;9.40;99.90
53146;DHT22;39042;53.150;5.898;2023-01-01T16:31:20;9.40;99.90
53146;DHT22;39042;53.150;5.898;2023-01-01T16:33:49;9.40;99.90
53146;DHT22;39042;53.150;5.898;2023-01-01T16:36:16;9.40;99.90
53146;DHT22;39042;53.150;5.898;2023-01-01T16:38:42;9.40;99.90
53146;DHT22;39042;53.150;5.898;2023-01-01T16:41:12;9.40;99.90
53146;DHT22;39042;53.150;5.898;2023-01-01T16:43:38;9.40;99.90
53146;DHT22;39042;53.150;5.898;2023-01-01T16:46:03;9.40;99.90
53146;DHT22;39042;53.150;5.898;2023-01-01T16:48:29;9.40;99.90
53146;DHT22;39042;53.150;5.898;2023-01-01T16:50:55;9.40;99.90
53146;DHT22;39042;53.150;5.898;2023-01-01T16:53:20;9.50;99.90
53146;DHT22;39042;53.150;5.898;2023-01-01T16:55:48;9.50;99.90
53146;DHT22;39042;53.150;5.898;2023-01-01T16:58:14;9.50;99.90
53146;DHT22;39042;53.150;5.898;2023-01-01T17:00:40;9.50;99.90
53146;DHT22;39042;53.150;5.898;2023-01-01T17:03:05;9.50;99.90
53146;DHT22;39042;53.150;5.898;2023-01-01T17:05:34;9.40;99.90
53146;DHT22;39042;53.150;5.898;2023-01-01T17:07:59;9.40;99.90
53146;DHT22;39042;53.150;5.898;2023-01-01T17:10:25;9.40;99.90
53146;DHT22;39042;53.150;5.898;2023-01-01T17:12:51;9.40;99.90
53146;DHT22;39042;53.150;5.898;2023-01-01T17:15:17;9.40;99.90
53146;DHT22;39042;53.150;5.898;2023-01-01T17:17:42;9.30;99.90
53146;DHT22;39042;53.150;5.898;2023-01-01T17:20:08;9.40;99.90
53146;DHT22;39042;53.150;5.898;2023-01-01T17:22:34;9.40;99.90
53146;DHT22;39042;53.150;5.898;2023-01-01T17:25:01;9.30;99.90
53146;DHT22;39042;53.150;5.898;2023-01-01T17:27:27;9.30;99.90
53146;DHT22;39042;53.150;5.898;2023-01-01T17:29:52;9.40;99.90
53146;DHT22;39042;53.150;5.898;2023-01-01T17:32:18;9.30;99.90
53146;DHT22;39042;53.150;5.898;2023-01-01T17:34:44;9.30;99.90
53146;DHT22;39042;53.150;5.898;2023-01-01T17:37:09;9.30;99.90
53146;DHT22;39042;53.150;5.898;2023-01-01T17:39:35;9.30;99.90
53146;DHT22;39042;53.150;5.898;2023-01-01T17:42:01;9.30;99.90
53146;DHT22;39042;53.150;5.898;2023-01-01T17:44:26;9.40;99.90
53146;DHT22;39042;53.150;5.898;2023-01-01T17:46:52;9.40;99.90
53146;DHT22;39042;53.150;5.898;2023-01-01T17:49:19;9.40;99.90
53146;DHT22;39042;53.150;5.898;2023-01-01T17:51:45;9.50;99.90
53146;DHT22;39042;53.150;5.898;2023-01-01T17:54:10;9.50;99.90
53146;DHT22;39042;53.150;5.898;2023-01-01T17:56:38;9.60;99.90
53146;DHT22;39042;53.150;5.898;2023-01-01T17:59:04;9.60;99.90
53146;DHT22;39042;53.150;5.898;2023-01-01T18:01:30;9.60;99.90
53146;DHT22;39042;53.150;5.898;2023-01-01T18:04:00;9.60;99.90
53146;DHT22;39042;53.150;5.898;2023-01-01T18:06:27;9.60;99.90
53146;DHT22;39042;53.150;5.898;2023-01-01T18:08:53;9.60;99.90
53146;DHT22;39042;53.150;5.898;2023-01-01T18:11:19;9.60;99.90
53146;DHT22;39042;53.150;5.898;2023-01-01T18:13:45;9.60;99.90
53146;DHT22;39042;53.150;5.898;2023-01-01T18:16:11;9.70;99.90
53146;DHT22;39042;53.150;5.898;2023-01-01T18:18:37;9.70;99.90
53146;DHT22;39042;53.150;5.898;2023-01-01T18:21:04;9.70;99.90
53146;DHT22;39042;53.150;5.898;2023-01-01T18:23:31;9.70;99.90
53146;DHT22;39042;53.150;5.898;2023-01-01T18:26:00;9.70;99.90
53146;DHT22;39042;53.150;5.898;2023-01-01T18:28:26;9.80;99.90
53146;DHT22;39042;53.150;5.898;2023-01-01T18:30:51;9.80;99.90
53146;DHT22;39042;53.150;5.898;2023-01-01T18:33:17;9.80;99.90
53146;DHT22;39042;53.150;5.898;2023-01-01T18:35:43;9.80;99.90
53146;DHT22;39042;53.150;5.898;2023-01-01T18:38:09;9.90;99.90
53146;DHT22;39042;53.150;5.898;2023-01-01T18:40:36;9.90;99.90
53146;DHT22;39042;53.150;5.898;2023-01-01T18:43:06;9.90;99.90
53146;DHT22;39042;53.150;5.898;2023-01-01T18:45:34;9.90;99.90
53146;DHT22;39042;53.150;5.898;2023-01-01T18:48:00;10.00;99.90
53146;DHT22;39042;53.150;5.898;2023-01-01T18:50:27;10.00;99.90
53146;DHT22;39042;53.150;5.898;2023-01-01T18:55:19;10.00;99.90
53146;DHT22;39042;53.150;5.898;2023-01-01T18:57:54;10.10;99.90
53146;DHT22;39042;53.150;5.898;2023-01-01T19:00:26;10.00;99.90
53146;DHT22;39042;53.150;5.898;2023-01-01T19:05:22;10.10;99.90
53146;DHT22;39042;53.150;5.898;2023-01-01T19:10:20;10.10;99.90
53146;DHT22;39042;53.150;5.898;2023-01-01T19:12:46;10.10;99.90
53146;DHT22;39042;53.150;5.898;2023-01-01T19:15:13;10.10;99.90
53146;DHT22;39042;53.150;5.898;2023-01-01T19:17:39;10.10;99.90
53146;DHT22;39042;53.150;5.898;2023-01-01T19:20:18;10.10;99.90
53146;DHT22;39042;53.150;5.898;2023-01-01T19:22:46;10.10;99.90
53146;DHT22;39042;53.150;5.898;2023-01-01T19:25:29;10.10;99.90
53146;DHT22;39042;53.150;5.898;2023-01-01T19:27:55;10.10;99.90
53146;DHT22;39042;53.150;5.898;2023-01-01T19:30:21;10.10;99.90
53146;DHT22;39042;53.150;5.898;2023-01-01T19:32:51;10.20;99.90
53146;DHT22;39042;53.150;5.898;2023-01-01T19:35:16;10.10;99.90
53146;DHT22;39042;53.150;5.898;2023-01-01T19:37:42;10.10;99.90
53146;DHT22;39042;53.150;5.898;2023-01-01T19:40:08;10.20;99.90
53146;DHT22;39042;53.150;5.898;2023-01-01T19:42:34;10.20;99.90
53146;DHT22;39042;53.150;5.898;2023-01-01T19:44:59;10.20;99.90
53146;DHT22;39042;53.150;5.898;2023-01-01T19:47:25;10.20;99.90
53146;DHT22;39042;53.150;5.898;2023-01-01T19:49:51;10.20;99.90
53146;DHT22;39042;53.150;5.898;2023-01-01T19:52:16;10.30;99.90
53146;DHT22;39042;53.150;5.898;2023-01-01T19:54:42;10.30;99.90
53146;DHT22;39042;53.150;5.898;2023-01-01T19:57:07;10.20;99.90
53146;DHT22;39042;53.150;5.898;2023-01-01T19:59:33;10.30;99.90
53146;DHT22;39042;53.150;5.898;2023-01-01T20:01:59;10.20;99.90
53146;DHT22;39042;53.150;5.898;2023-01-01T20:04:25;10.30;99.90
53146;DHT22;39042;53.150;5.898;2023-01-01T20:06:50;10.30;99.90
53146;DHT22;39042;53.150;5.898;2023-01-01T20:09:16;10.30;99.90
53146;DHT22;39042;53.150;5.898;2023-01-01T20:11:42;10.30;99.90
53146;DHT22;39042;53.150;5.898;2023-01-01T20:14:07;10.20;99.90
53146;DHT22;39042;53.150;5.898;2023-01-01T20:16:33;10.20;99.90
53146;DHT22;39042;53.150;5.898;2023-01-01T20:19:00;10.30;99.90
53146;DHT22;39042;53.150;5.898;2023-01-01T20:21:26;10.30;99.90
53146;DHT22;39042;53.150;5.898;2023-01-01T20:24:10;10.30;99.90
53146;DHT22;39042;53.150;5.898;2023-01-01T20:26:36;10.30;99.90
53146;DHT22;39042;53.150;5.898;2023-01-01T20:29:02;10.30;99.90
53146;DHT22;39042;53.150;5.898;2023-01-01T20:31:47;10.30;99.90
53146;DHT22;39042;53.150;5.898;2023-01-01T20:34:13;10.30;99.90
53146;DHT22;39042;53.150;5.898;2023-01-01T20:36:39;10.30;99.90
53146;DHT22;39042;53.150;5.898;2023-01-01T20:39:23;10.20;99.90
53146;DHT22;39042;53.150;5.898;2023-01-01T20:41:49;10.20;99.90
53146;DHT22;39042;53.150;5.898;2023-01-01T20:44:15;10.20;99.90
53146;DHT22;39042;53.150;5.898;2023-01-01T20:46:41;10.20;99.90
53146;DHT22;39042;53.150;5.898;2023-01-01T20:49:07;10.20;99.90
53146;DHT22;39042;53.150;5.898;2023-01-01T20:51:33;10.20;99.90
53146;DHT22;39042;53.150;5.898;2023-01-01T20:53:59;10.10;99.90
53146;DHT22;39042;53.150;5.898;2023-01-01T20:56:24;10.10;99.90
53146;DHT22;39042;53.150;5.898;2023-01-01T20:58:50;10.10;99.90
53146;DHT22;39042;53.150;5.898;2023-01-01T21:01:20;10.00;99.90
53146;DHT22;39042;53.150;5.898;2023-01-01T21:03:45;10.00;99.90
53146;DHT22;39042;53.150;5.898;2023-01-01T21:06:11;10.00;99.90
53146;DHT22;39042;53.150;5.898;2023-01-01T21:08:37;9.90;99.90
53146;DHT22;39042;53.150;5.898;2023-01-01T21:11:03;9.90;99.90
53146;DHT22;39042;53.150;5.898;2023-01-01T21:13:29;9.90;99.90
53146;DHT22;39042;53.150;5.898;2023-01-01T21:15:55;9.90;99.90
53146;DHT22;39042;53.150;5.898;2023-01-01T21:18:25;9.90;99.90
53146;DHT22;39042;53.150;5.898;2023-01-01T21:20:51;9.90;99.90
53146;DHT22;39042;53.150;5.898;2023-01-01T21:23:24;9.90;99.90
53146;DHT22;39042;53.150;5.898;2023-01-01T21:25:51;9.80;99.90
53146;DHT22;39042;53.150;5.898;2023-01-01T21:28:17;9.80;99.90
53146;DHT22;39042;53.150;5.898;2023-01-01T21:30:46;9.80;99.90
53146;DHT22;39042;53.150;5.898;2023-01-01T21:33:13;9.80;99.90
53146;DHT22;39042;53.150;5.898;2023-01-01T21:35:40;9.80;99.90
53146;DHT22;39042;53.150;5.898;2023-01-01T21:38:15;9.80;99.90
53146;DHT22;39042;53.150;5.898;2023-01-01T21:40:56;9.70;99.90
53146;DHT22;39042;53.150;5.898;2023-01-01T21:45:51;9.70;99.90
53146;DHT22;39042;53.150;5.898;2023-01-01T21:48:21;9.70;99.90
53146;DHT22;39042;53.150;5.898;2023-01-01T21:50:48;9.70;99.90
53146;DHT22;39042;53.150;5.898;2023-01-01T21:53:21;9.60;99.90
53146;DHT22;39042;53.150;5.898;2023-01-01T21:55:47;9.60;99.90
53146;DHT22;39042;53.150;5.898;2023-01-01T21:58:17;9.60;99.90
53146;DHT22;39042;53.150;5.898;2023-01-01T22:01:23;9.60;99.90
53146;DHT22;39042;53.150;5.898;2023-01-01T22:03:58;9.60;99.90
53146;DHT22;39042;53.150;5.898;2023-01-01T22:06:32;9.60;99.90
53146;DHT22;39042;53.150;5.898;2023-01-01T22:08:58;9.60;99.90
53146;DHT22;39042;53.150;5.898;2023-01-01T22:11:25;9.50;99.90
53146;DHT22;39042;53.150;5.898;2023-01-01T22:13:52;9.50;99.90
53146;DHT22;39042;53.150;5.898;2023-01-01T22:16:21;9.50;99.90
53146;DHT22;39042;53.150;5.898;2023-01-01T22:18:50;9.50;99.90
53146;DHT22;39042;53.150;5.898;2023-01-01T22:21:16;9.40;99.90
53146;DHT22;39042;53.150;5.898;2023-01-01T22:23:42;9.40;99.90
53146;DHT22;39042;53.150;5.898;2023-01-01T22:26:20;9.40;99.90
53146;DHT22;39042;53.150;5.898;2023-01-01T22:28:47;9.40;99.90
53146;DHT22;39042;53.150;5.898;2023-01-01T22:31:16;9.40;99.90
53146;DHT22;39042;53.150;5.898;2023-01-01T22:33:43;9.30;99.90
53146;DHT22;39042;53.150;5.898;2023-01-01T22:36:23;9.30;99.90
53146;DHT22;39042;53.150;5.898;2023-01-01T22:38:54;9.30;99.90
53146;DHT22;39042;53.150;5.898;2023-01-01T22:41:21;9.30;99.90
53146;DHT22;39042;53.150;5.898;2023-01-01T22:43:47;9.30;99.90
53146;DHT22;39042;53.150;5.898;2023-01-01T22:46:21;9.30;99.90
53146;DHT22;39042;53.150;5.898;2023-01-01T22:48:47;9.30;99.90
53146;DHT22;39042;53.150;5.898;2023-01-01T22:51:16;9.30;99.90
53146;DHT22;39042;53.150;5.898;2023-01-01T22:53:41;9.30;99.90
53146;DHT22;39042;53.150;5.898;2023-01-01T22:56:08;9.20;99.90
53146;DHT22;39042;53.150;5.898;2023-01-01T22:58:34;9.20;99.90
53146;DHT22;39042;53.150;5.898;2023-01-01T23:00:59;9.30;99.90
53146;DHT22;39042;53.150;5.898;2023-01-01T23:03:25;9.20;99.90
53146;DHT22;39042;53.150;5.898;2023-01-01T23:05:51;9.20;99.90
53146;DHT22;39042;53.150;5.898;2023-01-01T23:08:17;9.20;99.90
53146;DHT22;39042;53.150;5.898;2023-01-01T23:10:43;9.20;99.90
53146;DHT22;39042;53.150;5.898;2023-01-01T23:13:08;9.20;99.90
53146;DHT22;39042;53.150;5.898;2023-01-01T23:15:53;9.20;99.90
53146;DHT22;39042;53.150;5.898;2023-01-01T23:18:26;9.20;99.90
53146;DHT22;39042;53.150;5.898;2023-01-01T23:20:52;9.20;99.90
53146;DHT22;39042;53.150;5.898;2023-01-01T23:23:18;9.20;99.90
53146;DHT22;39042;53.150;5.898;2023-01-01T23:25:44;9.20;99.90
53146;DHT22;39042;53.150;5.898;2023-01-01T23:28:09;9.10;99.90
53146;DHT22;39042;53.150;5.898;2023-01-01T23:30:35;9.10;99.90
53146;DHT22;39042;53.150;5.898;2023-01-01T23:33:01;9.10;99.90
53146;DHT22;39042;53.150;5.898;2023-01-01T23:35:27;9.10;99.90
53146;DHT22;39042;53.150;5.898;2023-01-01T23:37:52;9.10;99.90
53146;DHT22;39042;53.150;5.898;2023-01-01T23:40:20;9.00;99.90
53146;DHT22;39042;53.150;5.898;2023-01-01T23:42:45;9.00;99.90
53146;DHT22;39042;53.150;5.898;2023-01-01T23:45:11;9.00;99.90
53146;DHT22;39042;53.150;5.898;2023-01-01T23:47:37;8.90;99.90
53146;DHT22;39042;53.150;5.898;2023-01-01T23:50:05;8.90;99.90
53146;DHT22;39042;53.150;5.898;2023-01-01T23:52:30;8.90;99.90
53146;DHT22;39042;53.150;5.898;2023-01-01T23:54:56;8.90;99.90
53146;DHT22;39042;53.150;5.898;2023-01-01T23:57:22;8.90;99.90
53146;DHT22;39042;53.150;5.898;2023-01-01T23:59:48;8.90;99.90
